sensor_id;sensor_type;location;lat;lon;timestamp;P1;durP1;ratioP1;P2;durP2;ratioP2
51214;SDS011;63849;47.546;19.254;2023-05-19T00:00:55;8.07;;;6.22;;
51214;SDS011;63849;47.546;19.254;2023-05-19T00:03:23;7.85;;;6.47;;
51214;SDS011;63849;47.546;19.254;2023-05-19T00:05:51;8.23;;;6.50;;
51214;SDS011;63849;47.546;19.254;2023-05-19T00:08:18;7.50;;;6.53;;
51214;SDS011;63849;47.546;19.254;2023-05-19T00:10:44;7.90;;;6.07;;
51214;SDS011;63849;47.546;19.254;2023-05-19T00:13:11;6.82;;;6.20;;
51214;SDS011;63849;47.546;19.254;2023-05-19T00:15:37;6.38;;;5.72;;
51214;SDS011;63849;47.546;19.254;2023-05-19T00:18:03;7.53;;;6.13;;
51214;SDS011;63849;47.546;19.254;2023-05-19T00:20:29;7.43;;;5.70;;
51214;SDS011;63849;47.546;19.254;2023-05-19T00:22:54;7.22;;;6.05;;
51214;SDS011;63849;47.546;19.254;2023-05-19T00:25:20;7.53;;;6.40;;
51214;SDS011;63849;47.546;19.254;2023-05-19T00:27:46;9.85;;;6.22;;
51214;SDS011;63849;47.546;19.254;2023-05-19T00:30:12;6.78;;;6.13;;
51214;SDS011;63849;47.546;19.254;2023-05-19T00:32:38;8.02;;;6.25;;
51214;SDS011;63849;47.546;19.254;2023-05-19T00:35:04;7.72;;;6.60;;
51214;SDS011;63849;47.546;19.254;2023-05-19T00:37:30;7.88;;;6.65;;
51214;SDS011;63849;47.546;19.254;2023-05-19T00:39:56;7.25;;;6.55;;
51214;SDS011;63849;47.546;19.254;2023-05-19T00:42:23;6.68;;;6.07;;
51214;SDS011;63849;47.546;19.254;2023-05-19T00:44:49;7.40;;;6.70;;
51214;SDS011;63849;47.546;19.254;2023-05-19T00:47:15;7.05;;;5.80;;
51214;SDS011;63849;47.546;19.254;2023-05-19T00:49:41;7.57;;;6.63;;
51214;SDS011;63849;47.546;19.254;2023-05-19T00:52:08;6.75;;;6.15;;
51214;SDS011;63849;47.546;19.254;2023-05-19T00:54:34;8.18;;;7.38;;
51214;SDS011;63849;47.546;19.254;2023-05-19T00:57:00;8.30;;;7.40;;
51214;SDS011;63849;47.546;19.254;2023-05-19T00:59:28;8.07;;;7.28;;
51214;SDS011;63849;47.546;19.254;2023-05-19T01:01:54;7.18;;;6.40;;
51214;SDS011;63849;47.546;19.254;2023-05-19T01:04:20;8.10;;;7.30;;
51214;SDS011;63849;47.546;19.254;2023-05-19T01:06:46;11.80;;;7.03;;
51214;SDS011;63849;47.546;19.254;2023-05-19T01:09:22;7.93;;;7.13;;
51214;SDS011;63849;47.546;19.254;2023-05-19T01:11:48;8.48;;;7.60;;
51214;SDS011;63849;47.546;19.254;2023-05-19T01:14:14;9.57;;;7.13;;
51214;SDS011;63849;47.546;19.254;2023-05-19T01:30:39;9.10;;;7.88;;
51214;SDS011;63849;47.546;19.254;2023-05-19T01:33:08;9.77;;;8.07;;
51214;SDS011;63849;47.546;19.254;2023-05-19T01:35:36;8.52;;;7.10;;
51214;SDS011;63849;47.546;19.254;2023-05-19T01:38:03;9.38;;;7.15;;
51214;SDS011;63849;47.546;19.254;2023-05-19T01:40:32;7.78;;;7.07;;
51214;SDS011;63849;47.546;19.254;2023-05-19T01:42:59;10.18;;;7.75;;
51214;SDS011;63849;47.546;19.254;2023-05-19T01:45:29;9.93;;;8.38;;
51214;SDS011;63849;47.546;19.254;2023-05-19T01:47:58;11.07;;;8.20;;
51214;SDS011;63849;47.546;19.254;2023-05-19T01:50:26;12.13;;;9.63;;
51214;SDS011;63849;47.546;19.254;2023-05-19T01:52:52;12.23;;;9.57;;
51214;SDS011;63849;47.546;19.254;2023-05-19T01:55:19;11.18;;;9.10;;
51214;SDS011;63849;47.546;19.254;2023-05-19T02:00:41;9.13;;;8.18;;
51214;SDS011;63849;47.546;19.254;2023-05-19T02:05:50;9.50;;;8.43;;
51214;SDS011;63849;47.546;19.254;2023-05-19T02:08:26;8.65;;;7.75;;
51214;SDS011;63849;47.546;19.254;2023-05-19T02:11:06;11.50;;;8.85;;
51214;SDS011;63849;47.546;19.254;2023-05-19T02:13:43;10.38;;;8.68;;
51214;SDS011;63849;47.546;19.254;2023-05-19T02:16:13;11.35;;;8.85;;
51214;SDS011;63849;47.546;19.254;2023-05-19T02:18:40;11.07;;;9.50;;
51214;SDS011;63849;47.546;19.254;2023-05-19T02:21:09;12.18;;;9.30;;
51214;SDS011;63849;47.546;19.254;2023-05-19T02:23:38;10.18;;;8.68;;
51214;SDS011;63849;47.546;19.254;2023-05-19T02:26:05;9.48;;;8.57;;
51214;SDS011;63849;47.546;19.254;2023-05-19T02:28:33;13.27;;;9.30;;
51214;SDS011;63849;47.546;19.254;2023-05-19T02:31:00;12.68;;;10.48;;
51214;SDS011;63849;47.546;19.254;2023-05-19T02:33:27;16.60;;;12.80;;
51214;SDS011;63849;47.546;19.254;2023-05-19T02:35:54;21.00;;;15.10;;
51214;SDS011;63849;47.546;19.254;2023-05-19T02:38:21;19.67;;;13.13;;
51214;SDS011;63849;47.546;19.254;2023-05-19T02:40:46;22.08;;;14.68;;
51214;SDS011;63849;47.546;19.254;2023-05-19T02:43:12;22.40;;;14.82;;
51214;SDS011;63849;47.546;19.254;2023-05-19T02:45:38;23.10;;;14.82;;
51214;SDS011;63849;47.546;19.254;2023-05-19T02:48:04;23.42;;;15.68;;
51214;SDS011;63849;47.546;19.254;2023-05-19T02:50:30;24.65;;;15.32;;
51214;SDS011;63849;47.546;19.254;2023-05-19T02:52:55;23.40;;;16.15;;
51214;SDS011;63849;47.546;19.254;2023-05-19T02:55:21;20.73;;;15.10;;
51214;SDS011;63849;47.546;19.254;2023-05-19T02:57:47;22.65;;;15.25;;
51214;SDS011;63849;47.546;19.254;2023-05-19T03:00:13;23.33;;;16.25;;
51214;SDS011;63849;47.546;19.254;2023-05-19T03:02:39;20.77;;;15.73;;
51214;SDS011;63849;47.546;19.254;2023-05-19T03:05:05;24.17;;;17.67;;
51214;SDS011;63849;47.546;19.254;2023-05-19T03:07:32;31.77;;;18.65;;
51214;SDS011;63849;47.546;19.254;2023-05-19T03:09:58;27.80;;;18.25;;
51214;SDS011;63849;47.546;19.254;2023-05-19T03:12:24;24.85;;;18.33;;
51214;SDS011;63849;47.546;19.254;2023-05-19T03:14:50;26.65;;;19.42;;
51214;SDS011;63849;47.546;19.254;2023-05-19T03:17:17;28.45;;;19.25;;
51214;SDS011;63849;47.546;19.254;2023-05-19T03:19:42;26.67;;;18.77;;
51214;SDS011;63849;47.546;19.254;2023-05-19T03:22:08;30.63;;;21.00;;
51214;SDS011;63849;47.546;19.254;2023-05-19T03:24:34;27.80;;;19.08;;
51214;SDS011;63849;47.546;19.254;2023-05-19T03:27:00;27.98;;;20.02;;
51214;SDS011;63849;47.546;19.254;2023-05-19T03:29:26;28.90;;;20.17;;
51214;SDS011;63849;47.546;19.254;2023-05-19T03:31:52;29.15;;;20.17;;
51214;SDS011;63849;47.546;19.254;2023-05-19T03:34:18;28.52;;;18.77;;
51214;SDS011;63849;47.546;19.254;2023-05-19T03:36:43;27.60;;;19.02;;
51214;SDS011;63849;47.546;19.254;2023-05-19T03:39:09;28.30;;;18.55;;
51214;SDS011;63849;47.546;19.254;2023-05-19T03:41:35;27.70;;;17.88;;
51214;SDS011;63849;47.546;19.254;2023-05-19T03:44:01;30.33;;;20.40;;
51214;SDS011;63849;47.546;19.254;2023-05-19T03:46:27;25.60;;;18.60;;
51214;SDS011;63849;47.546;19.254;2023-05-19T03:48:53;32.22;;;19.45;;
51214;SDS011;63849;47.546;19.254;2023-05-19T03:51:20;27.70;;;18.30;;
51214;SDS011;63849;47.546;19.254;2023-05-19T03:53:46;29.58;;;20.25;;
51214;SDS011;63849;47.546;19.254;2023-05-19T03:56:12;26.33;;;17.50;;
51214;SDS011;63849;47.546;19.254;2023-05-19T03:58:40;22.05;;;16.90;;
51214;SDS011;63849;47.546;19.254;2023-05-19T04:01:09;24.52;;;18.20;;
51214;SDS011;63849;47.546;19.254;2023-05-19T04:03:35;24.70;;;17.00;;
51214;SDS011;63849;47.546;19.254;2023-05-19T04:06:01;24.83;;;17.80;;
51214;SDS011;63849;47.546;19.254;2023-05-19T04:08:29;24.98;;;17.67;;
51214;SDS011;63849;47.546;19.254;2023-05-19T04:10:54;20.73;;;16.20;;
51214;SDS011;63849;47.546;19.254;2023-05-19T04:13:21;21.85;;;16.45;;
51214;SDS011;63849;47.546;19.254;2023-05-19T04:15:47;25.48;;;17.80;;
51214;SDS011;63849;47.546;19.254;2023-05-19T04:18:13;22.13;;;17.50;;
51214;SDS011;63849;47.546;19.254;2023-05-19T04:20:39;24.17;;;18.58;;
51214;SDS011;63849;47.546;19.254;2023-05-19T04:23:04;23.83;;;18.77;;
51214;SDS011;63849;47.546;19.254;2023-05-19T04:25:30;24.00;;;17.85;;
51214;SDS011;63849;47.546;19.254;2023-05-19T04:27:57;21.50;;;17.63;;
51214;SDS011;63849;47.546;19.254;2023-05-19T04:30:24;21.20;;;18.02;;
51214;SDS011;63849;47.546;19.254;2023-05-19T04:32:50;24.67;;;18.52;;
51214;SDS011;63849;47.546;19.254;2023-05-19T04:35:16;20.00;;;17.17;;
51214;SDS011;63849;47.546;19.254;2023-05-19T04:37:42;21.27;;;17.33;;
51214;SDS011;63849;47.546;19.254;2023-05-19T04:40:10;22.17;;;17.27;;
51214;SDS011;63849;47.546;19.254;2023-05-19T04:42:39;20.92;;;17.33;;
51214;SDS011;63849;47.546;19.254;2023-05-19T04:45:07;21.20;;;17.25;;
51214;SDS011;63849;47.546;19.254;2023-05-19T04:47:34;22.98;;;17.52;;
51214;SDS011;63849;47.546;19.254;2023-05-19T04:50:05;23.02;;;16.42;;
51214;SDS011;63849;47.546;19.254;2023-05-19T04:52:31;20.50;;;16.58;;
51214;SDS011;63849;47.546;19.254;2023-05-19T04:54:57;20.58;;;16.88;;
51214;SDS011;63849;47.546;19.254;2023-05-19T04:57:23;21.67;;;17.63;;
51214;SDS011;63849;47.546;19.254;2023-05-19T04:59:49;16.88;;;14.57;;
51214;SDS011;63849;47.546;19.254;2023-05-19T05:02:16;19.17;;;15.80;;
51214;SDS011;63849;47.546;19.254;2023-05-19T05:04:41;20.50;;;16.90;;
51214;SDS011;63849;47.546;19.254;2023-05-19T05:07:08;18.65;;;15.85;;
51214;SDS011;63849;47.546;19.254;2023-05-19T05:09:34;17.88;;;15.38;;
51214;SDS011;63849;47.546;19.254;2023-05-19T05:12:01;17.98;;;13.02;;
51214;SDS011;63849;47.546;19.254;2023-05-19T05:14:27;14.38;;;11.73;;
51214;SDS011;63849;47.546;19.254;2023-05-19T05:16:54;14.77;;;13.27;;
51214;SDS011;63849;47.546;19.254;2023-05-19T05:19:20;14.25;;;12.27;;
51214;SDS011;63849;47.546;19.254;2023-05-19T05:21:46;14.50;;;12.65;;
51214;SDS011;63849;47.546;19.254;2023-05-19T05:24:12;13.43;;;12.02;;
51214;SDS011;63849;47.546;19.254;2023-05-19T05:26:38;13.57;;;11.60;;
51214;SDS011;63849;47.546;19.254;2023-05-19T05:29:04;13.38;;;11.98;;
51214;SDS011;63849;47.546;19.254;2023-05-19T05:31:30;11.73;;;10.50;;
51214;SDS011;63849;47.546;19.254;2023-05-19T05:33:56;11.93;;;10.73;;
51214;SDS011;63849;47.546;19.254;2023-05-19T05:36:22;12.10;;;9.27;;
51214;SDS011;63849;47.546;19.254;2023-05-19T05:38:48;10.75;;;9.40;;
51214;SDS011;63849;47.546;19.254;2023-05-19T05:41:17;10.18;;;9.18;;
51214;SDS011;63849;47.546;19.254;2023-05-19T05:43:48;9.82;;;8.93;;
51214;SDS011;63849;47.546;19.254;2023-05-19T05:46:15;9.25;;;8.20;;
51214;SDS011;63849;47.546;19.254;2023-05-19T05:48:41;10.20;;;7.22;;
51214;SDS011;63849;47.546;19.254;2023-05-19T05:51:08;9.75;;;7.20;;
51214;SDS011;63849;47.546;19.254;2023-05-19T05:53:40;7.10;;;6.50;;
51214;SDS011;63849;47.546;19.254;2023-05-19T05:56:11;7.60;;;6.82;;
51214;SDS011;63849;47.546;19.254;2023-05-19T05:58:38;8.07;;;7.28;;
51214;SDS011;63849;47.546;19.254;2023-05-19T06:01:04;7.97;;;6.35;;
51214;SDS011;63849;47.546;19.254;2023-05-19T06:03:34;7.13;;;6.40;;
51214;SDS011;63849;47.546;19.254;2023-05-19T06:06:12;8.48;;;6.88;;
51214;SDS011;63849;47.546;19.254;2023-05-19T06:08:40;9.52;;;6.57;;
51214;SDS011;63849;47.546;19.254;2023-05-19T06:11:06;7.53;;;6.70;;
51214;SDS011;63849;47.546;19.254;2023-05-19T06:13:37;6.07;;;5.57;;
51214;SDS011;63849;47.546;19.254;2023-05-19T06:18:32;5.88;;;5.25;;
51214;SDS011;63849;47.546;19.254;2023-05-19T06:21:00;4.75;;;4.35;;
51214;SDS011;63849;47.546;19.254;2023-05-19T06:23:32;9.05;;;5.13;;
51214;SDS011;63849;47.546;19.254;2023-05-19T06:25:58;4.57;;;4.15;;
51214;SDS011;63849;47.546;19.254;2023-05-19T06:28:25;6.10;;;5.40;;
51214;SDS011;63849;47.546;19.254;2023-05-19T06:30:51;4.90;;;4.25;;
51214;SDS011;63849;47.546;19.254;2023-05-19T06:33:17;5.13;;;4.70;;
51214;SDS011;63849;47.546;19.254;2023-05-19T06:35:47;6.40;;;4.43;;
51214;SDS011;63849;47.546;19.254;2023-05-19T06:38:13;5.35;;;4.78;;
51214;SDS011;63849;47.546;19.254;2023-05-19T06:40:41;3.85;;;3.40;;
51214;SDS011;63849;47.546;19.254;2023-05-19T06:43:10;3.83;;;3.42;;
51214;SDS011;63849;47.546;19.254;2023-05-19T06:45:43;5.20;;;3.70;;
51214;SDS011;63849;47.546;19.254;2023-05-19T06:48:09;3.47;;;3.10;;
51214;SDS011;63849;47.546;19.254;2023-05-19T06:50:35;4.03;;;3.22;;
51214;SDS011;63849;47.546;19.254;2023-05-19T06:53:02;4.68;;;3.33;;
51214;SDS011;63849;47.546;19.254;2023-05-19T06:55:28;3.90;;;3.50;;
51214;SDS011;63849;47.546;19.254;2023-05-19T06:57:57;3.60;;;3.30;;
51214;SDS011;63849;47.546;19.254;2023-05-19T07:00:22;3.40;;;3.10;;
51214;SDS011;63849;47.546;19.254;2023-05-19T07:02:56;3.10;;;2.60;;
51214;SDS011;63849;47.546;19.254;2023-05-19T07:05:25;3.22;;;2.85;;
51214;SDS011;63849;47.546;19.254;2023-05-19T07:07:51;7.90;;;3.10;;
51214;SDS011;63849;47.546;19.254;2023-05-19T07:10:16;5.75;;;3.58;;
51214;SDS011;63849;47.546;19.254;2023-05-19T07:12:46;4.35;;;3.63;;
51214;SDS011;63849;47.546;19.254;2023-05-19T07:15:12;6.18;;;3.78;;
51214;SDS011;63849;47.546;19.254;2023-05-19T07:17:37;3.97;;;3.58;;
51214;SDS011;63849;47.546;19.254;2023-05-19T07:20:04;5.88;;;3.60;;
51214;SDS011;63849;47.546;19.254;2023-05-19T07:22:36;3.60;;;3.30;;
51214;SDS011;63849;47.546;19.254;2023-05-19T07:25:04;3.75;;;3.45;;
51214;SDS011;63849;47.546;19.254;2023-05-19T07:27:33;4.00;;;3.67;;
51214;SDS011;63849;47.546;19.254;2023-05-19T07:29:59;6.25;;;4.32;;
51214;SDS011;63849;47.546;19.254;2023-05-19T07:32:25;6.50;;;3.88;;
51214;SDS011;63849;47.546;19.254;2023-05-19T07:34:52;4.13;;;3.75;;
51214;SDS011;63849;47.546;19.254;2023-05-19T07:37:18;6.05;;;5.07;;
51214;SDS011;63849;47.546;19.254;2023-05-19T07:39:44;5.00;;;4.60;;
51214;SDS011;63849;47.546;19.254;2023-05-19T07:42:10;5.03;;;4.60;;
51214;SDS011;63849;47.546;19.254;2023-05-19T07:44:38;7.85;;;5.53;;
51214;SDS011;63849;47.546;19.254;2023-05-19T07:47:05;5.50;;;4.93;;
51214;SDS011;63849;47.546;19.254;2023-05-19T07:49:34;5.50;;;4.70;;
51214;SDS011;63849;47.546;19.254;2023-05-19T07:52:00;7.75;;;5.53;;
51214;SDS011;63849;47.546;19.254;2023-05-19T07:54:25;5.95;;;5.40;;
51214;SDS011;63849;47.546;19.254;2023-05-19T07:56:51;6.13;;;5.45;;
51214;SDS011;63849;47.546;19.254;2023-05-19T07:59:20;7.05;;;5.38;;
51214;SDS011;63849;47.546;19.254;2023-05-19T08:01:48;6.15;;;5.53;;
51214;SDS011;63849;47.546;19.254;2023-05-19T08:04:14;7.47;;;6.78;;
51214;SDS011;63849;47.546;19.254;2023-05-19T08:06:41;7.53;;;5.85;;
51214;SDS011;63849;47.546;19.254;2023-05-19T08:09:08;10.23;;;6.40;;
51214;SDS011;63849;47.546;19.254;2023-05-19T08:11:37;6.22;;;5.70;;
51214;SDS011;63849;47.546;19.254;2023-05-19T08:14:03;7.32;;;5.03;;
51214;SDS011;63849;47.546;19.254;2023-05-19T08:16:32;5.65;;;5.20;;
51214;SDS011;63849;47.546;19.254;2023-05-19T08:19:03;5.72;;;4.85;;
51214;SDS011;63849;47.546;19.254;2023-05-19T08:21:30;5.53;;;4.22;;
51214;SDS011;63849;47.546;19.254;2023-05-19T08:24:01;7.03;;;5.47;;
51214;SDS011;63849;47.546;19.254;2023-05-19T08:26:28;8.95;;;5.57;;
51214;SDS011;63849;47.546;19.254;2023-05-19T08:28:54;5.30;;;4.90;;
51214;SDS011;63849;47.546;19.254;2023-05-19T08:31:20;9.50;;;4.65;;
51214;SDS011;63849;47.546;19.254;2023-05-19T08:33:46;7.10;;;5.40;;
51214;SDS011;63849;47.546;19.254;2023-05-19T08:36:18;5.43;;;4.93;;
51214;SDS011;63849;47.546;19.254;2023-05-19T08:38:46;5.78;;;5.28;;
51214;SDS011;63849;47.546;19.254;2023-05-19T08:41:16;5.20;;;4.68;;
51214;SDS011;63849;47.546;19.254;2023-05-19T08:43:45;6.88;;;4.97;;
51214;SDS011;63849;47.546;19.254;2023-05-19T08:46:12;8.70;;;5.85;;
51214;SDS011;63849;47.546;19.254;2023-05-19T08:48:41;6.53;;;5.72;;
51214;SDS011;63849;47.546;19.254;2023-05-19T08:53:50;8.40;;;5.45;;
51214;SDS011;63849;47.546;19.254;2023-05-19T08:56:21;5.63;;;5.13;;
51214;SDS011;63849;47.546;19.254;2023-05-19T08:58:49;5.88;;;4.80;;
51214;SDS011;63849;47.546;19.254;2023-05-19T09:01:17;5.90;;;3.97;;
51214;SDS011;63849;47.546;19.254;2023-05-19T09:03:46;7.00;;;5.00;;
51214;SDS011;63849;47.546;19.254;2023-05-19T09:06:14;5.43;;;4.85;;
51214;SDS011;63849;47.546;19.254;2023-05-19T09:08:40;5.10;;;4.70;;
51214;SDS011;63849;47.546;19.254;2023-05-19T09:11:07;6.07;;;4.90;;
51214;SDS011;63849;47.546;19.254;2023-05-19T09:13:34;5.53;;;5.03;;
51214;SDS011;63849;47.546;19.254;2023-05-19T09:16:00;5.75;;;5.10;;
51214;SDS011;63849;47.546;19.254;2023-05-19T09:18:27;8.27;;;4.43;;
51214;SDS011;63849;47.546;19.254;2023-05-19T09:20:58;7.57;;;4.85;;
51214;SDS011;63849;47.546;19.254;2023-05-19T09:25:55;7.22;;;4.50;;
51214;SDS011;63849;47.546;19.254;2023-05-19T09:28:25;5.45;;;4.95;;
51214;SDS011;63849;47.546;19.254;2023-05-19T09:31:02;6.15;;;3.92;;
51214;SDS011;63849;47.546;19.254;2023-05-19T09:33:35;4.75;;;4.28;;
51214;SDS011;63849;47.546;19.254;2023-05-19T09:36:04;4.55;;;4.15;;
51214;SDS011;63849;47.546;19.254;2023-05-19T09:38:32;5.25;;;4.18;;
51214;SDS011;63849;47.546;19.254;2023-05-19T09:40:59;5.75;;;4.00;;
51214;SDS011;63849;47.546;19.254;2023-05-19T09:43:36;4.43;;;4.03;;
51214;SDS011;63849;47.546;19.254;2023-05-19T09:46:06;4.68;;;4.13;;
51214;SDS011;63849;47.546;19.254;2023-05-19T09:48:35;4.72;;;3.85;;
51214;SDS011;63849;47.546;19.254;2023-05-19T09:51:04;5.15;;;3.40;;
51214;SDS011;63849;47.546;19.254;2023-05-19T09:53:34;5.22;;;3.85;;
51214;SDS011;63849;47.546;19.254;2023-05-19T09:56:03;4.40;;;4.00;;
51214;SDS011;63849;47.546;19.254;2023-05-19T09:58:30;6.70;;;3.83;;
51214;SDS011;63849;47.546;19.254;2023-05-19T10:00:59;19.52;;;4.00;;
51214;SDS011;63849;47.546;19.254;2023-05-19T10:03:26;4.20;;;3.80;;
51214;SDS011;63849;47.546;19.254;2023-05-19T10:06:09;4.78;;;3.85;;
51214;SDS011;63849;47.546;19.254;2023-05-19T10:08:36;4.93;;;3.83;;
51214;SDS011;63849;47.546;19.254;2023-05-19T10:11:03;4.28;;;3.45;;
51214;SDS011;63849;47.546;19.254;2023-05-19T10:13:32;4.22;;;3.83;;
51214;SDS011;63849;47.546;19.254;2023-05-19T10:16:07;4.60;;;4.20;;
51214;SDS011;63849;47.546;19.254;2023-05-19T10:18:36;5.60;;;3.45;;
51214;SDS011;63849;47.546;19.254;2023-05-19T10:21:02;4.95;;;4.15;;
51214;SDS011;63849;47.546;19.254;2023-05-19T10:23:29;5.35;;;4.50;;
51214;SDS011;63849;47.546;19.254;2023-05-19T10:25:56;4.68;;;4.22;;
51214;SDS011;63849;47.546;19.254;2023-05-19T10:28:26;5.63;;;4.40;;
51214;SDS011;63849;47.546;19.254;2023-05-19T10:31:01;6.88;;;4.25;;
51214;SDS011;63849;47.546;19.254;2023-05-19T10:38:47;8.25;;;4.22;;
51214;SDS011;63849;47.546;19.254;2023-05-19T10:47:06;8.90;;;4.90;;
51214;SDS011;63849;47.546;19.254;2023-05-19T10:49:35;4.03;;;3.72;;
51214;SDS011;63849;47.546;19.254;2023-05-19T10:52:02;4.60;;;4.00;;
51214;SDS011;63849;47.546;19.254;2023-05-19T10:54:42;4.88;;;3.78;;
51214;SDS011;63849;47.546;19.254;2023-05-19T10:57:19;7.68;;;3.88;;
51214;SDS011;63849;47.546;19.254;2023-05-19T10:59:57;5.10;;;3.45;;
51214;SDS011;63849;47.546;19.254;2023-05-19T11:05:13;3.65;;;3.17;;
51214;SDS011;63849;47.546;19.254;2023-05-19T11:07:42;3.60;;;3.30;;
51214;SDS011;63849;47.546;19.254;2023-05-19T11:10:23;4.03;;;3.60;;
51214;SDS011;63849;47.546;19.254;2023-05-19T11:12:49;3.65;;;3.13;;
51214;SDS011;63849;47.546;19.254;2023-05-19T11:15:21;7.22;;;3.88;;
51214;SDS011;63849;47.546;19.254;2023-05-19T11:17:50;3.78;;;3.35;;
51214;SDS011;63849;47.546;19.254;2023-05-19T11:20:26;3.28;;;3.08;;
51214;SDS011;63849;47.546;19.254;2023-05-19T11:28:19;3.80;;;3.50;;
51214;SDS011;63849;47.546;19.254;2023-05-19T11:30:50;4.43;;;3.28;;
51214;SDS011;63849;47.546;19.254;2023-05-19T11:33:19;4.90;;;3.28;;
51214;SDS011;63849;47.546;19.254;2023-05-19T11:35:46;4.30;;;3.05;;
51214;SDS011;63849;47.546;19.254;2023-05-19T11:38:13;5.38;;;3.42;;
51214;SDS011;63849;47.546;19.254;2023-05-19T11:40:41;3.28;;;3.08;;
51214;SDS011;63849;47.546;19.254;2023-05-19T11:43:11;4.07;;;3.67;;
51214;SDS011;63849;47.546;19.254;2023-05-19T11:45:38;4.45;;;2.95;;
51214;SDS011;63849;47.546;19.254;2023-05-19T11:48:03;3.25;;;2.95;;
51214;SDS011;63849;47.546;19.254;2023-05-19T11:50:31;4.18;;;3.30;;
51214;SDS011;63849;47.546;19.254;2023-05-19T11:53:00;6.57;;;3.35;;
51214;SDS011;63849;47.546;19.254;2023-05-19T11:55:26;3.60;;;2.97;;
51214;SDS011;63849;47.546;19.254;2023-05-19T11:58:02;3.03;;;2.80;;
51214;SDS011;63849;47.546;19.254;2023-05-19T12:00:29;5.72;;;3.17;;
51214;SDS011;63849;47.546;19.254;2023-05-19T12:03:01;4.60;;;3.17;;
51214;SDS011;63849;47.546;19.254;2023-05-19T12:05:27;4.15;;;3.35;;
51214;SDS011;63849;47.546;19.254;2023-05-19T12:07:56;4.68;;;3.20;;
51214;SDS011;63849;47.546;19.254;2023-05-19T12:10:27;3.08;;;2.78;;
51214;SDS011;63849;47.546;19.254;2023-05-19T12:12:55;4.05;;;2.60;;
51214;SDS011;63849;47.546;19.254;2023-05-19T12:15:23;4.43;;;2.65;;
51214;SDS011;63849;47.546;19.254;2023-05-19T12:17:49;3.25;;;3.00;;
51214;SDS011;63849;47.546;19.254;2023-05-19T12:20:22;3.30;;;3.00;;
51214;SDS011;63849;47.546;19.254;2023-05-19T12:22:49;6.40;;;3.25;;
51214;SDS011;63849;47.546;19.254;2023-05-19T12:25:15;3.20;;;2.70;;
51214;SDS011;63849;47.546;19.254;2023-05-19T12:27:44;4.45;;;2.88;;
51214;SDS011;63849;47.546;19.254;2023-05-19T12:30:12;3.67;;;2.67;;
51214;SDS011;63849;47.546;19.254;2023-05-19T12:32:42;4.18;;;2.80;;
51214;SDS011;63849;47.546;19.254;2023-05-19T12:35:10;3.10;;;2.78;;
51214;SDS011;63849;47.546;19.254;2023-05-19T12:37:40;3.47;;;3.00;;
51214;SDS011;63849;47.546;19.254;2023-05-19T12:40:07;3.38;;;2.85;;
51214;SDS011;63849;47.546;19.254;2023-05-19T12:42:33;3.10;;;2.75;;
51214;SDS011;63849;47.546;19.254;2023-05-19T12:45:02;5.32;;;2.97;;
51214;SDS011;63849;47.546;19.254;2023-05-19T12:47:29;4.88;;;2.60;;
51214;SDS011;63849;47.546;19.254;2023-05-19T12:50:07;3.65;;;2.50;;
51214;SDS011;63849;47.546;19.254;2023-05-19T12:55:15;4.13;;;2.75;;
51214;SDS011;63849;47.546;19.254;2023-05-19T12:57:42;4.63;;;3.00;;
51214;SDS011;63849;47.546;19.254;2023-05-19T13:00:16;2.83;;;2.60;;
51214;SDS011;63849;47.546;19.254;2023-05-19T13:02:53;2.50;;;2.30;;
51214;SDS011;63849;47.546;19.254;2023-05-19T13:05:38;3.30;;;3.10;;
51214;SDS011;63849;47.546;19.254;2023-05-19T13:08:14;3.83;;;3.38;;
51214;SDS011;63849;47.546;19.254;2023-05-19T13:10:44;6.75;;;3.30;;
51214;SDS011;63849;47.546;19.254;2023-05-19T13:13:10;4.53;;;2.53;;
51214;SDS011;63849;47.546;19.254;2023-05-19T13:15:38;3.13;;;2.90;;
51214;SDS011;63849;47.546;19.254;2023-05-19T13:18:06;3.53;;;2.80;;
51214;SDS011;63849;47.546;19.254;2023-05-19T13:20:40;2.70;;;2.50;;
51214;SDS011;63849;47.546;19.254;2023-05-19T13:23:08;5.78;;;2.83;;
51214;SDS011;63849;47.546;19.254;2023-05-19T13:25:35;2.60;;;2.40;;
51214;SDS011;63849;47.546;19.254;2023-05-19T13:28:01;3.53;;;2.53;;
51214;SDS011;63849;47.546;19.254;2023-05-19T13:30:36;4.90;;;3.10;;
51214;SDS011;63849;47.546;19.254;2023-05-19T13:33:05;4.22;;;2.88;;
51214;SDS011;63849;47.546;19.254;2023-05-19T13:35:31;2.97;;;2.63;;
51214;SDS011;63849;47.546;19.254;2023-05-19T13:38:07;3.28;;;3.00;;
51214;SDS011;63849;47.546;19.254;2023-05-19T13:40:36;3.13;;;2.83;;
51214;SDS011;63849;47.546;19.254;2023-05-19T13:43:06;3.20;;;2.90;;
51214;SDS011;63849;47.546;19.254;2023-05-19T13:45:35;4.28;;;2.60;;
51214;SDS011;63849;47.546;19.254;2023-05-19T13:48:01;6.00;;;3.28;;
51214;SDS011;63849;47.546;19.254;2023-05-19T13:50:27;3.00;;;2.80;;
51214;SDS011;63849;47.546;19.254;2023-05-19T13:52:59;4.13;;;2.78;;
51214;SDS011;63849;47.546;19.254;2023-05-19T13:55:24;5.03;;;3.00;;
51214;SDS011;63849;47.546;19.254;2023-05-19T13:57:51;3.60;;;2.70;;
51214;SDS011;63849;47.546;19.254;2023-05-19T14:00:20;3.30;;;2.40;;
51214;SDS011;63849;47.546;19.254;2023-05-19T14:02:49;3.50;;;3.05;;
51214;SDS011;63849;47.546;19.254;2023-05-19T14:05:18;4.93;;;2.95;;
51214;SDS011;63849;47.546;19.254;2023-05-19T14:07:44;3.53;;;2.92;;
51214;SDS011;63849;47.546;19.254;2023-05-19T14:10:10;3.15;;;2.83;;
51214;SDS011;63849;47.546;19.254;2023-05-19T14:12:36;3.05;;;2.85;;
51214;SDS011;63849;47.546;19.254;2023-05-19T14:15:04;3.22;;;2.92;;
51214;SDS011;63849;47.546;19.254;2023-05-19T14:17:32;4.75;;;2.63;;
51214;SDS011;63849;47.546;19.254;2023-05-19T14:20:12;4.07;;;2.92;;
51214;SDS011;63849;47.546;19.254;2023-05-19T14:22:38;4.50;;;3.03;;
51214;SDS011;63849;47.546;19.254;2023-05-19T14:25:04;5.50;;;3.10;;
51214;SDS011;63849;47.546;19.254;2023-05-19T14:27:30;3.60;;;3.03;;
51214;SDS011;63849;47.546;19.254;2023-05-19T14:29:56;3.70;;;2.75;;
51214;SDS011;63849;47.546;19.254;2023-05-19T14:32:22;4.35;;;3.00;;
51214;SDS011;63849;47.546;19.254;2023-05-19T14:34:48;3.08;;;2.88;;
51214;SDS011;63849;47.546;19.254;2023-05-19T14:37:23;3.30;;;3.00;;
51214;SDS011;63849;47.546;19.254;2023-05-19T14:39:53;3.28;;;2.97;;
51214;SDS011;63849;47.546;19.254;2023-05-19T14:42:18;2.92;;;2.72;;
51214;SDS011;63849;47.546;19.254;2023-05-19T14:44:45;4.25;;;2.90;;
51214;SDS011;63849;47.546;19.254;2023-05-19T14:47:11;3.35;;;3.00;;
51214;SDS011;63849;47.546;19.254;2023-05-19T14:49:36;5.50;;;2.85;;
51214;SDS011;63849;47.546;19.254;2023-05-19T14:52:03;3.17;;;2.88;;
51214;SDS011;63849;47.546;19.254;2023-05-19T14:54:29;3.90;;;2.75;;
51214;SDS011;63849;47.546;19.254;2023-05-19T14:56:58;4.90;;;2.72;;
51214;SDS011;63849;47.546;19.254;2023-05-19T14:59:24;4.43;;;2.97;;
51214;SDS011;63849;47.546;19.254;2023-05-19T15:01:50;3.70;;;3.13;;
51214;SDS011;63849;47.546;19.254;2023-05-19T15:04:18;3.28;;;3.05;;
51214;SDS011;63849;47.546;19.254;2023-05-19T15:06:44;3.20;;;2.70;;
51214;SDS011;63849;47.546;19.254;2023-05-19T15:09:12;3.47;;;2.80;;
51214;SDS011;63849;47.546;19.254;2023-05-19T15:11:39;4.20;;;3.05;;
51214;SDS011;63849;47.546;19.254;2023-05-19T15:14:05;6.15;;;3.50;;
51214;SDS011;63849;47.546;19.254;2023-05-19T15:16:34;3.15;;;2.95;;
51214;SDS011;63849;47.546;19.254;2023-05-19T15:19:00;3.28;;;2.97;;
51214;SDS011;63849;47.546;19.254;2023-05-19T15:21:26;3.40;;;2.65;;